createdAt,value
2023-03-06T00:00:10.500Z,47.90
2023-03-06T00:01:10.503Z,53.00
2023-03-06T00:02:10.510Z,47.00
2023-03-06T00:03:10.487Z,13.00
2023-03-06T00:04:10.581Z,51.60
2023-03-06T00:05:10.592Z,113.00
2023-03-06T00:06:10.459Z,95.40
2023-03-06T00:07:10.448Z,51.90
2023-03-06T00:08:10.417Z,46.90
2023-03-06T00:09:10.433Z,42.60
2023-03-06T00:10:11.092Z,11.00
2023-03-06T00:11:10.451Z,14.70
2023-03-06T00:12:10.334Z,106.20
2023-03-06T00:13:10.355Z,104.70
2023-03-06T00:14:10.355Z,68.00
2023-03-06T00:15:10.324Z,61.50
2023-03-06T00:16:10.336Z,10.40
2023-03-06T00:17:10.361Z,43.70
2023-03-06T00:18:10.256Z,121.40
2023-03-06T00:19:10.295Z,116.30
2023-03-06T00:20:10.250Z,74.10
2023-03-06T00:21:10.253Z,55.60
2023-03-06T00:22:10.230Z,56.90
2023-03-06T00:23:10.254Z,38.80
2023-03-06T00:24:10.205Z,10.20
2023-03-06T00:25:10.225Z,92.00
2023-03-06T00:26:10.147Z,115.80
2023-03-06T00:27:10.200Z,82.70
2023-03-06T00:28:10.165Z,66.30
2023-03-06T00:29:10.196Z,13.90
2023-03-06T00:30:10.109Z,19.50
2023-03-06T00:31:10.174Z,117.20
2023-03-06T00:32:10.122Z,120.20
2023-03-06T00:33:10.077Z,70.10
2023-03-06T00:34:10.075Z,50.00
2023-03-06T00:35:10.096Z,57.10
2023-03-06T00:36:10.047Z,13.70
2023-03-06T00:37:10.061Z,83.70
2023-03-06T00:38:09.990Z,119.00
2023-03-06T00:39:10.029Z,118.80
2023-03-06T00:40:09.974Z,73.90
2023-03-06T00:41:10.017Z,51.10
2023-03-06T00:42:09.975Z,63.10
2023-03-06T00:43:09.986Z,13.40
2023-03-06T00:44:09.914Z,17.60
2023-03-06T00:45:09.930Z,116.90
2023-03-06T00:46:09.989Z,128.10
2023-03-06T00:47:10.030Z,93.60
2023-03-06T00:48:09.877Z,58.20
2023-03-06T00:49:09.908Z,63.50
2023-03-06T00:50:09.842Z,41.00
2023-03-06T00:51:12.809Z,13.10
2023-03-06T00:52:09.804Z,112.50
2023-03-06T00:53:09.871Z,128.10
2023-03-06T00:54:09.808Z,122.10
2023-03-06T00:55:09.793Z,77.90
2023-03-06T00:56:09.795Z,55.70
2023-03-06T00:57:09.831Z,64.20
2023-03-06T00:58:09.735Z,12.10
2023-03-06T00:59:09.913Z,22.80
2023-03-06T01:00:09.713Z,128.10
2023-03-06T01:01:09.772Z,135.80
2023-03-06T01:02:09.787Z,69.10
2023-03-06T01:03:09.686Z,62.40
2023-03-06T01:04:09.678Z,65.40
2023-03-06T01:05:09.737Z,37.40
2023-03-06T01:06:09.625Z,17.40
2023-03-06T01:07:09.678Z,150.20
2023-03-06T01:08:09.598Z,144.60
2023-03-06T01:09:09.612Z,123.80
2023-03-06T01:10:09.624Z,69.40
2023-03-06T01:11:09.603Z,55.00
2023-03-06T01:12:09.586Z,60.50
2023-03-06T01:13:09.609Z,16.20
2023-03-06T01:14:09.520Z,36.10
2023-03-06T01:15:09.551Z,132.90
2023-03-06T01:16:09.547Z,126.30
2023-03-06T01:17:09.600Z,73.80
2023-03-06T01:18:09.474Z,55.20
2023-03-06T01:19:09.600Z,60.00
2023-03-06T01:20:09.433Z,12.90
2023-03-06T01:21:09.453Z,14.30
2023-03-06T01:22:09.458Z,116.40
2023-03-06T01:23:09.465Z,123.40
2023-03-06T01:24:09.425Z,95.10
2023-03-06T01:25:09.431Z,57.40
2023-03-06T01:26:09.364Z,63.60
2023-03-06T01:27:09.400Z,52.40
2023-03-06T01:28:09.334Z,14.70
2023-03-06T01:29:09.380Z,122.50
2023-03-06T01:30:09.329Z,131.10
2023-03-06T01:31:09.348Z,118.80
2023-03-06T01:32:09.342Z,70.60
2023-03-06T01:33:09.288Z,52.90
2023-03-06T01:34:09.276Z,63.30
2023-03-06T01:35:09.389Z,15.10
2023-03-06T01:36:09.262Z,16.70
2023-03-06T01:37:09.276Z,130.10
2023-03-06T01:38:09.208Z,133.30
2023-03-06T01:39:09.265Z,114.20
2023-03-06T01:40:09.177Z,60.50
2023-03-06T01:41:09.260Z,61.80
2023-03-06T01:42:09.188Z,48.50
2023-03-06T01:43:09.175Z,14.00
2023-03-06T01:44:09.160Z,144.30
2023-03-06T01:45:09.170Z,139.30
2023-03-06T01:46:09.170Z,117.90
2023-03-06T01:47:09.151Z,37.00
2023-03-06T01:48:09.120Z,61.60
2023-03-06T01:49:09.121Z,65.60
2023-03-06T01:50:09.077Z,41.70
2023-03-06T01:51:09.094Z,12.50
2023-03-06T01:52:09.044Z,140.50
2023-03-06T01:53:09.081Z,136.60
2023-03-06T01:54:09.036Z,119.70
2023-03-06T01:55:09.054Z,77.10
2023-03-06T01:56:09.006Z,55.70
2023-03-06T01:57:09.012Z,67.60
2023-03-06T01:58:08.988Z,14.60
2023-03-06T01:59:09.116Z,18.10
2023-03-06T02:00:08.936Z,120.30
2023-03-06T02:01:08.975Z,134.70
2023-03-06T02:02:08.965Z,123.10
2023-03-06T02:03:08.918Z,68.70
2023-03-06T02:04:08.895Z,62.80
2023-03-06T02:05:08.951Z,56.70
2023-03-06T02:06:08.867Z,12.70
2023-03-06T02:07:08.928Z,150.00
2023-03-06T02:08:08.838Z,132.60
2023-03-06T02:09:08.845Z,108.70
2023-03-06T02:10:08.840Z,56.90
2023-03-06T02:11:09.029Z,80.60
2023-03-06T02:12:08.806Z,126.60
2023-03-06T02:13:08.820Z,82.00
2023-03-06T02:14:08.752Z,17.30
2023-03-06T02:15:08.781Z,126.00
2023-03-06T02:16:08.787Z,148.60
2023-03-06T02:17:08.769Z,89.40
2023-03-06T02:18:08.753Z,67.00
2023-03-06T02:19:08.738Z,77.80
2023-03-06T02:20:08.680Z,24.70
2023-03-06T02:21:08.687Z,16.20
2023-03-06T02:22:08.688Z,152.00
2023-03-06T02:23:08.714Z,159.30
2023-03-06T02:24:08.654Z,151.60
2023-03-06T02:25:08.702Z,102.10
2023-03-06T02:26:08.610Z,67.00
2023-03-06T02:27:08.626Z,61.50
2023-03-06T02:28:08.598Z,14.90
2023-03-06T02:29:08.707Z,167.60
2023-03-06T02:30:08.578Z,141.60
2023-03-06T02:31:08.606Z,95.90
2023-03-06T02:32:08.610Z,89.90
2023-03-06T02:33:08.585Z,135.40
2023-03-06T02:34:08.484Z,82.50
2023-03-06T02:35:08.542Z,13.20
2023-03-06T02:36:08.497Z,145.20
2023-03-06T02:37:08.506Z,163.90
2023-03-06T02:38:08.442Z,116.30
2023-03-06T02:39:08.486Z,70.20
2023-03-06T02:40:08.435Z,67.80
2023-03-06T02:41:08.492Z,71.30
2023-03-06T02:42:08.435Z,15.10
2023-03-06T02:43:08.401Z,97.90
2023-03-06T02:44:08.397Z,152.10
2023-03-06T02:45:08.427Z,145.10
2023-03-06T02:46:08.405Z,135.90
2023-03-06T02:47:08.412Z,66.90
2023-03-06T02:48:08.312Z,82.40
2023-03-06T02:49:08.338Z,14.60
2023-03-06T02:50:08.306Z,58.30
2023-03-06T02:51:08.355Z,143.40
2023-03-06T02:52:08.296Z,112.90
2023-03-06T02:53:08.390Z,26.70
2023-03-06T02:54:08.279Z,72.60
2023-03-06T02:55:08.250Z,90.10
2023-03-06T02:56:08.238Z,17.00
2023-03-06T02:57:08.258Z,35.20
2023-03-06T02:58:08.171Z,148.40
2023-03-06T02:59:08.235Z,162.00
2023-03-06T03:00:08.158Z,135.80
2023-03-06T03:01:08.233Z,71.50
2023-03-06T03:02:08.157Z,74.10
2023-03-06T03:03:08.144Z,27.60
2023-03-06T03:04:08.152Z,17.50
2023-03-06T03:05:08.181Z,164.40
2023-03-06T03:06:08.092Z,132.20
2023-03-06T03:07:08.072Z,80.10
2023-03-06T03:08:08.097Z,72.40
2023-03-06T03:09:08.077Z,97.30
2023-03-06T03:10:08.061Z,19.80
2023-03-06T03:11:08.094Z,17.30
2023-03-06T03:12:08.035Z,152.00
2023-03-06T03:13:07.989Z,171.10
2023-03-06T03:14:08.017Z,141.60
2023-03-06T03:15:07.984Z,79.20
2023-03-06T03:16:08.066Z,80.70
2023-03-06T03:17:07.987Z,76.90
2023-03-06T03:18:07.948Z,15.80
2023-03-06T03:19:07.932Z,140.60
2023-03-06T03:20:07.928Z,143.10
2023-03-06T03:21:07.929Z,107.70
2023-03-06T03:22:07.943Z,45.50
2023-03-06T03:23:07.930Z,164.70
2023-03-06T03:24:07.876Z,155.50
2023-03-06T03:25:07.837Z,53.50
2023-03-06T03:26:07.867Z,73.10
2023-03-06T03:27:07.796Z,85.30
2023-03-06T03:28:07.849Z,16.40
2023-03-06T03:29:07.897Z,17.20
2023-03-06T03:30:07.817Z,150.80
2023-03-06T03:31:07.865Z,126.70
2023-03-06T03:32:07.840Z,25.30
2023-03-06T03:33:07.730Z,151.20
2023-03-06T03:34:07.769Z,122.00
2023-03-06T03:35:07.830Z,33.10
2023-03-06T03:36:07.742Z,69.10
2023-03-06T03:37:07.703Z,151.80
2023-03-06T03:38:07.702Z,157.40
2023-03-06T03:39:07.682Z,122.70
2023-03-06T03:40:07.680Z,78.30
2023-03-06T03:41:07.730Z,83.00
2023-03-06T03:42:07.655Z,16.20
2023-03-06T03:43:07.667Z,17.70
2023-03-06T03:44:07.621Z,143.40
2023-03-06T03:45:07.597Z,157.10
2023-03-06T03:46:07.626Z,138.70
2023-03-06T03:47:07.672Z,71.10
2023-03-06T03:48:07.591Z,92.10
2023-03-06T03:49:07.553Z,17.70
2023-03-06T03:50:07.552Z,38.80
2023-03-06T03:51:07.533Z,146.70
2023-03-06T03:52:07.520Z,118.10
2023-03-06T03:53:07.515Z,88.80
2023-03-06T03:54:07.521Z,78.90
2023-03-06T03:55:07.473Z,85.10
2023-03-06T03:56:07.482Z,20.80
2023-03-06T03:57:07.410Z,143.70
2023-03-06T03:58:07.454Z,164.70
2023-03-06T03:59:07.425Z,150.70
2023-03-06T04:00:07.423Z,115.90
2023-03-06T04:01:07.383Z,70.30
2023-03-06T04:02:07.426Z,80.40
2023-03-06T04:03:07.356Z,30.40
2023-03-06T04:04:07.373Z,18.90
2023-03-06T04:05:07.450Z,166.40
2023-03-06T04:06:07.353Z,131.60
2023-03-06T04:07:07.281Z,76.00
2023-03-06T04:08:07.327Z,74.90
2023-03-06T04:09:07.274Z,17.50
2023-03-06T04:10:07.288Z,157.80
2023-03-06T04:11:07.308Z,155.70
2023-03-06T04:12:07.239Z,80.90
2023-03-06T04:13:09.903Z,123.00
2023-03-06T04:14:07.255Z,163.30
2023-03-06T04:15:07.175Z,134.80
2023-03-06T04:16:07.259Z,67.40
2023-03-06T04:17:07.232Z,76.80
2023-03-06T04:18:07.167Z,54.60
2023-03-06T04:19:07.156Z,14.30
2023-03-06T04:20:07.144Z,170.10
2023-03-06T04:21:07.228Z,162.50
2023-03-06T04:22:07.160Z,147.90
2023-03-06T04:23:07.100Z,67.50
2023-03-06T04:24:07.117Z,67.00
2023-03-06T04:25:07.086Z,81.10
2023-03-06T04:26:07.076Z,15.40
2023-03-06T04:27:07.041Z,101.50
2023-03-06T04:28:07.069Z,166.30
2023-03-06T04:29:07.068Z,152.00
2023-03-06T04:30:07.023Z,109.20
2023-03-06T04:31:07.028Z,66.10
2023-03-06T04:32:07.081Z,81.60
2023-03-06T04:33:06.959Z,16.80
2023-03-06T04:34:06.986Z,17.80
2023-03-06T04:35:07.036Z,156.60
2023-03-06T04:36:06.981Z,168.70
2023-03-06T04:37:06.940Z,141.10
2023-03-06T04:38:06.925Z,76.70
2023-03-06T04:39:06.944Z,77.10
2023-03-06T04:40:06.897Z,52.60
2023-03-06T04:41:06.956Z,17.20
2023-03-06T04:42:06.883Z,169.30
2023-03-06T04:43:06.849Z,147.70
2023-03-06T04:44:06.838Z,142.30
2023-03-06T04:45:07.766Z,100.90
2023-03-06T04:46:06.839Z,67.20
2023-03-06T04:47:06.818Z,73.80
2023-03-06T04:48:06.824Z,16.00
2023-03-06T04:49:06.787Z,151.00
2023-03-06T04:50:06.756Z,156.00
2023-03-06T04:51:06.747Z,144.20
2023-03-06T04:52:06.789Z,98.50
2023-03-06T04:53:06.818Z,68.80
2023-03-06T04:54:06.740Z,76.70
2023-03-06T04:55:06.662Z,15.20
2023-03-06T04:56:06.734Z,15.50
2023-03-06T04:57:06.669Z,145.20
2023-03-06T04:58:06.660Z,150.20
2023-03-06T04:59:06.646Z,123.30
2023-03-06T05:00:06.655Z,69.10
2023-03-06T05:01:06.640Z,83.90
2023-03-06T05:02:06.635Z,58.50
2023-03-06T05:03:06.586Z,19.90
2023-03-06T05:04:06.580Z,161.90
2023-03-06T05:05:06.552Z,158.00
2023-03-06T05:06:06.578Z,146.80
2023-03-06T05:07:06.520Z,104.00
2023-03-06T05:08:06.537Z,65.20
2023-03-06T05:09:06.514Z,82.80
2023-03-06T05:10:06.505Z,16.30
2023-03-06T05:11:06.599Z,17.50
2023-03-06T05:12:06.458Z,141.10
2023-03-06T05:13:06.443Z,150.30
2023-03-06T05:14:06.489Z,82.10
2023-03-06T05:15:06.420Z,33.10
2023-03-06T05:16:06.522Z,143.10
2023-03-06T05:17:06.470Z,163.10
2023-03-06T05:18:06.400Z,151.50
2023-03-06T05:19:06.393Z,69.80
2023-03-06T05:20:06.365Z,68.90
2023-03-06T05:21:06.356Z,76.00
2023-03-06T05:22:06.356Z,15.50
2023-03-06T05:23:06.427Z,59.10
2023-03-06T05:24:06.339Z,132.60
2023-03-06T05:25:06.290Z,146.10
2023-03-06T05:26:06.285Z,104.90
2023-03-06T05:27:06.275Z,70.40
2023-03-06T05:28:06.253Z,72.20
2023-03-06T05:29:06.261Z,68.80
2023-03-06T05:30:06.264Z,18.00
2023-03-06T05:31:06.240Z,45.50
2023-03-06T05:32:06.316Z,137.70
2023-03-06T05:33:06.162Z,139.40
2023-03-06T05:34:06.235Z,124.40
2023-03-06T05:35:06.194Z,17.40
2023-03-06T05:36:06.186Z,175.40
2023-03-06T05:37:06.167Z,154.30
2023-03-06T05:38:06.138Z,152.60
2023-03-06T05:39:06.127Z,73.00
2023-03-06T05:40:06.107Z,70.70
2023-03-06T05:41:06.193Z,78.60
2023-03-06T05:42:06.102Z,15.60
2023-03-06T05:43:06.042Z,43.80
2023-03-06T05:44:06.081Z,132.40
2023-03-06T05:45:06.083Z,146.70
2023-03-06T05:46:06.170Z,130.90
2023-03-06T05:47:06.033Z,68.80
2023-03-06T05:48:06.759Z,78.80
2023-03-06T05:49:06.008Z,31.30
2023-03-06T05:50:06.028Z,15.60
2023-03-06T05:51:05.974Z,153.90
2023-03-06T05:52:05.951Z,151.80
2023-03-06T05:53:05.960Z,104.40
2023-03-06T05:54:05.967Z,26.00
2023-03-06T05:55:05.887Z,148.20
2023-03-06T05:56:05.940Z,144.50
2023-03-06T05:57:05.896Z,110.60
2023-03-06T05:58:05.887Z,88.30
2023-03-06T05:59:05.969Z,16.60
2023-03-06T06:00:05.859Z,172.70
2023-03-06T06:01:05.837Z,156.20
2023-03-06T06:02:05.899Z,145.30
2023-03-06T06:03:05.865Z,97.80
2023-03-06T06:04:05.794Z,69.30
2023-03-06T06:05:05.907Z,82.30
2023-03-06T06:06:05.820Z,17.90
2023-03-06T06:07:05.734Z,19.50
2023-03-06T06:08:05.796Z,160.70
2023-03-06T06:09:05.753Z,125.40
2023-03-06T06:10:05.734Z,22.90
2023-03-06T06:11:05.825Z,159.10
2023-03-06T06:12:05.685Z,110.70
2023-03-06T06:13:05.661Z,69.50
2023-03-06T06:14:05.693Z,95.80
2023-03-06T06:15:05.629Z,179.60
2023-03-06T06:16:05.731Z,153.80
2023-03-06T06:17:05.688Z,80.70
2023-03-06T06:18:05.624Z,89.10
2023-03-06T06:19:05.653Z,18.60
2023-03-06T06:20:05.597Z,22.60
2023-03-06T06:21:05.543Z,163.60
2023-03-06T06:22:05.605Z,131.30
2023-03-06T06:23:05.581Z,40.50
2023-03-06T06:24:05.622Z,159.20
2023-03-06T06:25:05.537Z,133.40
2023-03-06T06:26:05.509Z,39.30
2023-03-06T06:27:05.497Z,162.30
2023-03-06T06:28:05.486Z,169.50
2023-03-06T06:29:05.503Z,143.00
2023-03-06T06:30:05.514Z,23.50
2023-03-06T06:31:05.489Z,174.70
2023-03-06T06:32:05.497Z,161.50
2023-03-06T06:33:05.472Z,86.20
2023-03-06T06:34:05.408Z,79.00
2023-03-06T06:35:05.482Z,84.50
2023-03-06T06:36:05.405Z,46.00
2023-03-06T06:37:05.431Z,32.10
2023-03-06T06:38:05.346Z,221.10
2023-03-06T06:39:05.352Z,173.50
2023-03-06T06:40:05.352Z,139.20
2023-03-06T06:41:35.720Z,98.40
2023-03-06T06:42:28.558Z,47.80
2023-03-06T06:43:06.276Z,186.40
2023-03-06T06:44:07.239Z,228.60
2023-03-06T06:45:05.286Z,215.80
2023-03-06T06:46:31.476Z,116.90
2023-03-06T06:47:24.215Z,99.90
2023-03-06T06:48:06.241Z,109.60
2023-03-06T06:49:05.238Z,53.70
2023-03-06T06:50:05.302Z,199.00
2023-03-06T06:51:05.194Z,171.20
2023-03-06T06:52:05.212Z,155.70
2023-03-06T06:53:05.167Z,108.90
2023-03-06T06:54:05.178Z,117.80
2023-03-06T06:55:05.114Z,71.80
2023-03-06T06:56:05.148Z,201.20
2023-03-06T06:57:05.143Z,173.90
2023-03-06T06:58:05.114Z,166.80
2023-03-06T06:59:16.068Z,131.60
2023-03-06T07:00:06.101Z,132.30
2023-03-06T07:01:05.031Z,80.00
2023-03-06T07:02:05.074Z,213.10
2023-03-06T07:03:04.998Z,194.50
2023-03-06T07:04:05.068Z,189.90
2023-03-06T07:05:05.720Z,228.80
2023-03-06T07:06:05.000Z,179.30
2023-03-06T07:07:04.965Z,145.00
2023-03-06T07:08:05.002Z,121.80
2023-03-06T07:09:04.955Z,133.80
2023-03-06T07:10:04.957Z,223.40
2023-03-06T07:11:04.970Z,207.60
2023-03-06T07:12:04.913Z,197.70
2023-03-06T07:13:04.881Z,197.10
2023-03-06T07:14:04.945Z,195.80
2023-03-06T07:15:04.887Z,149.80
2023-03-06T07:16:04.933Z,238.50
2023-03-06T07:17:04.971Z,250.90
2023-03-06T07:18:04.846Z,251.50
2023-03-06T07:19:04.820Z,261.60
2023-03-06T07:20:04.828Z,181.60
2023-03-06T07:21:04.772Z,156.50
2023-03-06T07:22:04.808Z,171.50
2023-03-06T07:23:04.899Z,237.00
2023-03-06T07:24:04.753Z,261.50
2023-03-06T07:25:04.771Z,249.40
2023-03-06T07:26:04.711Z,196.80
2023-03-06T07:27:04.754Z,241.00
2023-03-06T07:28:04.739Z,238.30
2023-03-06T07:29:04.738Z,210.40
2023-03-06T07:30:04.681Z,190.70
2023-03-06T07:31:04.737Z,245.50
2023-03-06T07:32:04.711Z,245.50
2023-03-06T07:33:04.681Z,221.40
2023-03-06T07:34:05.173Z,205.50
2023-03-06T07:35:22.009Z,216.10
2023-03-06T07:36:05.608Z,273.90
2023-03-06T07:37:04.599Z,286.60
2023-03-06T07:38:04.589Z,275.10
2023-03-06T07:39:04.619Z,235.40
2023-03-06T07:40:04.574Z,194.50
2023-03-06T07:41:04.659Z,205.30
2023-03-06T07:42:04.553Z,125.60
2023-03-06T07:43:18.321Z,147.60
2023-03-06T07:44:05.505Z,302.40
2023-03-06T07:45:04.526Z,312.40
2023-03-06T07:46:04.555Z,307.50
2023-03-06T07:47:04.558Z,241.20
2023-03-06T07:48:05.629Z,209.10
2023-03-06T07:49:04.444Z,117.50
2023-03-06T07:50:04.433Z,353.20
2023-03-06T07:51:04.417Z,337.00
2023-03-06T07:52:05.111Z,286.70
2023-03-06T07:53:04.447Z,297.40
2023-03-06T07:54:04.355Z,230.40
2023-03-06T07:55:04.368Z,125.90
2023-03-06T07:56:04.347Z,147.50
2023-03-06T07:57:04.380Z,352.70
2023-03-06T07:58:04.327Z,297.40
2023-03-06T07:59:04.355Z,280.50
2023-03-06T08:00:04.289Z,218.20
2023-03-06T08:01:04.290Z,215.20
2023-03-06T08:02:04.266Z,103.90
2023-03-06T08:03:04.302Z,358.90
2023-03-06T08:04:04.312Z,312.80
2023-03-06T08:05:04.308Z,303.60
2023-03-06T08:06:04.236Z,246.60
2023-03-06T08:07:04.245Z,147.90
2023-03-06T08:08:04.173Z,324.40
2023-03-06T08:09:04.185Z,317.20
2023-03-06T08:10:04.197Z,257.70
2023-03-06T08:11:04.315Z,240.10
2023-03-06T08:12:04.130Z,113.70
2023-03-06T08:13:04.129Z,333.00
2023-03-06T08:14:04.175Z,318.60
2023-03-06T08:15:04.123Z,281.10
2023-03-06T08:16:04.139Z,249.90
2023-03-06T08:17:04.148Z,43.80
2023-03-06T08:18:04.045Z,257.50
2023-03-06T08:19:04.089Z,351.20
2023-03-06T08:20:04.015Z,296.60
2023-03-06T08:21:04.030Z,294.40
2023-03-06T08:22:04.005Z,229.20
2023-03-06T08:23:04.024Z,232.40
2023-03-06T08:24:03.991Z,261.00
2023-03-06T08:25:04.002Z,34.40
2023-03-06T08:26:03.944Z,219.10
2023-03-06T08:27:03.990Z,344.30
2023-03-06T08:28:03.909Z,340.70
2023-03-06T08:29:03.977Z,331.60
2023-03-06T08:30:03.930Z,217.00
2023-03-06T08:31:03.892Z,248.80
2023-03-06T08:32:03.946Z,86.50
2023-03-06T08:33:03.908Z,44.00
2023-03-06T08:34:03.846Z,337.00
2023-03-06T08:35:03.899Z,337.60
2023-03-06T08:36:03.849Z,323.90
2023-03-06T08:37:03.855Z,258.70
2023-03-06T08:38:03.842Z,182.90
2023-03-06T08:39:03.793Z,192.50
2023-03-06T08:40:03.795Z,33.60
2023-03-06T08:41:03.834Z,36.60
2023-03-06T08:42:03.727Z,316.70
2023-03-06T08:43:03.741Z,311.30
2023-03-06T08:44:03.725Z,287.00
2023-03-06T08:45:03.738Z,173.90
2023-03-06T08:46:03.744Z,145.20
2023-03-06T08:47:03.737Z,145.40
2023-03-06T08:48:03.670Z,36.10
2023-03-06T08:49:03.683Z,216.70
2023-03-06T08:50:03.644Z,235.40
2023-03-06T08:51:03.638Z,241.70
2023-03-06T08:52:03.622Z,191.80
2023-03-06T08:53:03.651Z,137.50
2023-03-06T08:54:03.578Z,147.30
2023-03-06T08:55:03.681Z,30.40
2023-03-06T08:56:03.526Z,33.00
2023-03-06T08:57:03.562Z,233.00
2023-03-06T08:58:03.554Z,228.50
2023-03-06T08:59:03.592Z,175.20
2023-03-06T09:00:03.477Z,67.60
2023-03-06T09:01:03.596Z,221.10
2023-03-06T09:02:03.520Z,197.20
2023-03-06T09:03:03.486Z,48.70
2023-03-06T09:04:03.463Z,210.90
2023-03-06T09:05:03.612Z,206.90
2023-03-06T09:06:03.419Z,127.00
2023-03-06T09:07:03.444Z,114.60
2023-03-06T09:08:03.415Z,72.50
2023-03-06T09:09:03.402Z,32.70
2023-03-06T09:10:03.384Z,221.30
2023-03-06T09:11:03.415Z,207.20
2023-03-06T09:12:03.355Z,121.40
2023-03-06T09:13:03.377Z,32.00
2023-03-06T09:14:03.308Z,180.30
2023-03-06T09:15:03.320Z,190.50
2023-03-06T09:16:03.316Z,131.20
2023-03-06T09:17:03.374Z,108.20
2023-03-06T09:18:03.281Z,27.60
2023-03-06T09:19:03.297Z,108.50
2023-03-06T09:20:03.227Z,169.80
2023-03-06T09:21:03.223Z,178.20
2023-03-06T09:22:03.236Z,132.90
2023-03-06T09:23:03.327Z,84.40
2023-03-06T09:24:03.202Z,88.10
2023-03-06T09:25:03.224Z,21.50
2023-03-06T09:26:03.155Z,21.60
2023-03-06T09:27:03.185Z,174.00
2023-03-06T09:28:11.290Z,174.50
2023-03-06T09:29:04.200Z,122.50
2023-03-06T09:30:03.126Z,94.40
2023-03-06T09:31:03.197Z,96.80
2023-03-06T09:32:03.147Z,34.80
2023-03-06T09:33:03.117Z,22.40
2023-03-06T09:34:03.039Z,182.50
2023-03-06T09:35:03.131Z,167.10
2023-03-06T09:36:03.008Z,125.30
2023-03-06T09:37:03.023Z,102.50
2023-03-06T09:38:03.023Z,29.50
2023-03-06T09:39:03.002Z,21.00
2023-03-06T09:40:03.047Z,161.80
2023-03-06T09:41:03.127Z,142.20
2023-03-06T09:42:02.931Z,78.10
2023-03-06T09:43:02.969Z,45.40
2023-03-06T09:44:02.903Z,36.40
2023-03-06T09:45:02.929Z,19.30
2023-03-06T09:46:02.918Z,99.80
2023-03-06T09:47:02.977Z,121.30
2023-03-06T09:48:02.866Z,53.20
2023-03-06T09:49:02.865Z,37.40
2023-03-06T09:50:02.853Z,17.00
2023-03-06T09:51:02.852Z,62.10
2023-03-06T09:52:02.829Z,132.60
2023-03-06T09:53:02.897Z,116.90
2023-03-06T09:54:02.777Z,56.60
2023-03-06T09:55:02.810Z,13.80
2023-03-06T09:56:02.768Z,14.30
2023-03-06T09:57:02.775Z,57.10
2023-03-06T09:58:02.772Z,57.20
2023-03-06T09:59:02.766Z,44.50
2023-03-06T10:00:04.378Z,14.60
2023-03-06T10:01:02.764Z,14.20
2023-03-06T10:02:02.728Z,79.40
2023-03-06T10:03:02.926Z,69.20
2023-03-06T10:04:02.666Z,37.70
2023-03-06T10:05:02.746Z,27.60
2023-03-06T10:06:02.883Z,11.70
2023-03-06T10:07:02.660Z,11.50
2023-03-06T10:08:02.594Z,52.90
2023-03-06T10:09:02.602Z,36.10
2023-03-06T10:10:02.603Z,20.10
2023-03-06T10:11:02.611Z,14.50
2023-03-06T10:12:02.571Z,21.40
2023-03-06T10:13:02.582Z,68.70
2023-03-06T10:14:02.531Z,45.70
2023-03-06T10:15:02.563Z,34.90
2023-03-06T10:16:02.512Z,16.90
2023-03-06T10:17:02.614Z,31.50
2023-03-06T10:18:02.478Z,94.80
2023-03-06T10:19:02.515Z,49.60
2023-03-06T10:20:02.477Z,40.80
2023-03-06T10:21:13.602Z,16.70
2023-03-06T10:22:03.493Z,15.70
2023-03-06T10:23:05.125Z,58.10
2023-03-06T10:24:02.390Z,47.60
2023-03-06T10:25:02.431Z,37.90
2023-03-06T10:26:02.444Z,17.10
2023-03-06T10:27:02.407Z,16.40
2023-03-06T10:28:02.458Z,60.40
2023-03-06T10:29:02.346Z,48.30
2023-03-06T10:30:04.052Z,30.80
2023-03-06T10:31:02.430Z,15.10
2023-03-06T10:32:02.349Z,16.70
2023-03-06T10:33:02.345Z,56.70
2023-03-06T10:34:02.375Z,45.70
2023-03-06T10:35:02.286Z,26.50
2023-03-06T10:36:02.313Z,15.90
2023-03-06T10:37:02.256Z,16.30
2023-03-06T10:38:02.219Z,69.60
2023-03-06T10:39:02.219Z,46.70
2023-03-06T10:40:02.352Z,16.70
2023-03-06T10:41:02.245Z,12.80
2023-03-06T10:42:02.151Z,13.80
2023-03-06T10:43:11.392Z,67.70
2023-03-06T10:44:03.143Z,42.10
2023-03-06T10:45:02.868Z,13.20
2023-03-06T10:46:02.180Z,14.00
2023-03-06T10:47:02.111Z,33.70
2023-03-06T10:48:02.088Z,63.70
2023-03-06T10:49:02.107Z,27.90
2023-03-06T10:50:02.042Z,11.60
2023-03-06T10:51:09.782Z,11.70
2023-03-06T10:52:03.111Z,33.30
2023-03-06T10:53:02.073Z,57.30
2023-03-06T10:54:01.981Z,26.30
2023-03-06T10:55:02.069Z,11.50
2023-03-06T10:56:01.982Z,11.10
2023-03-06T10:57:02.001Z,54.40
2023-03-06T10:58:01.988Z,42.50
2023-03-06T10:59:01.973Z,16.60
2023-03-06T11:00:01.940Z,10.00
2023-03-06T11:01:01.949Z,11.00
2023-03-06T11:02:02.018Z,53.40
2023-03-06T11:03:01.921Z,35.40
2023-03-06T11:04:01.972Z,9.50
2023-03-06T11:05:01.952Z,10.20
2023-03-06T11:06:01.857Z,29.00
2023-03-06T11:07:01.871Z,44.30
2023-03-06T11:08:01.820Z,24.10
2023-03-06T11:09:01.828Z,8.80
2023-03-06T11:10:01.907Z,9.10
2023-03-06T11:11:01.805Z,9.00
2023-03-06T11:12:01.773Z,9.40
2023-03-06T11:13:01.795Z,10.40
2023-03-06T11:14:01.716Z,45.10
2023-03-06T11:15:01.787Z,32.10
2023-03-06T11:16:01.893Z,8.40
2023-03-06T11:17:01.697Z,9.90
2023-03-06T11:18:01.715Z,7.90
2023-03-06T11:19:01.691Z,8.70
2023-03-06T11:20:01.665Z,27.00
2023-03-06T11:21:01.693Z,41.70
2023-03-06T11:22:01.690Z,30.50
2023-03-06T11:23:01.630Z,7.80
2023-03-06T11:24:01.616Z,7.80
2023-03-06T11:25:01.686Z,31.90
2023-03-06T11:26:01.560Z,36.40
2023-03-06T11:27:01.610Z,18.80
2023-03-06T11:28:01.577Z,8.60
2023-03-06T11:29:01.640Z,9.20
2023-03-06T11:30:01.538Z,37.70
2023-03-06T11:31:01.577Z,31.50
2023-03-06T11:32:01.582Z,10.00
2023-03-06T11:33:01.529Z,7.80
2023-03-06T11:34:01.477Z,8.00
2023-03-06T11:35:01.600Z,8.30
2023-03-06T11:36:01.431Z,8.20
2023-03-06T11:37:01.463Z,9.10
2023-03-06T11:38:01.446Z,44.90
2023-03-06T11:39:01.418Z,36.70
2023-03-06T11:40:01.443Z,20.90
2023-03-06T11:41:01.351Z,7.60
2023-03-06T11:42:01.404Z,9.00
2023-03-06T11:43:01.342Z,36.40
2023-03-06T11:44:01.387Z,32.80
2023-03-06T11:45:02.903Z,9.40
2023-03-06T11:46:01.446Z,8.50
2023-03-06T11:47:01.325Z,8.20
2023-03-06T11:48:01.291Z,7.90
2023-03-06T11:49:01.260Z,8.20
2023-03-06T11:50:01.307Z,37.80
2023-03-06T11:51:01.237Z,30.40
2023-03-06T11:52:01.310Z,14.00
2023-03-06T11:53:01.231Z,7.90
2023-03-06T11:54:01.223Z,8.80
2023-03-06T11:55:01.264Z,40.40
2023-03-06T11:56:01.244Z,28.00
2023-03-06T11:57:01.165Z,8.40
2023-03-06T11:58:01.199Z,8.50
2023-03-06T11:59:01.165Z,8.40
2023-03-06T12:00:01.170Z,8.20
2023-03-06T12:01:01.093Z,26.60
2023-03-06T12:02:01.250Z,35.80
2023-03-06T12:03:01.061Z,27.20
2023-03-06T12:04:01.143Z,8.90
2023-03-06T12:05:01.209Z,8.50
2023-03-06T12:06:01.072Z,15.30
2023-03-06T12:07:01.051Z,37.90
2023-03-06T12:08:01.040Z,23.80
2023-03-06T12:09:01.013Z,8.70
2023-03-06T12:10:01.090Z,8.80
2023-03-06T12:11:00.992Z,31.00
2023-03-06T12:12:00.996Z,27.70
2023-03-06T12:13:00.929Z,14.80
2023-03-06T12:14:03.575Z,9.10
2023-03-06T12:15:01.011Z,9.20
2023-03-06T12:16:01.090Z,34.20
2023-03-06T12:17:00.900Z,28.80
2023-03-06T12:18:00.888Z,16.70
2023-03-06T12:19:00.871Z,8.50
2023-03-06T12:20:00.914Z,9.00
2023-03-06T12:21:00.848Z,33.00
2023-03-06T12:22:00.942Z,28.10
2023-03-06T12:23:14.584Z,20.80
2023-03-06T12:24:01.855Z,10.40
2023-03-06T12:25:00.836Z,11.20
2023-03-06T12:26:00.802Z,30.80
2023-03-06T12:27:00.774Z,25.70
2023-03-06T12:28:00.914Z,15.40
2023-03-06T12:29:00.757Z,10.80
2023-03-06T12:30:00.759Z,11.40
2023-03-06T12:31:00.727Z,34.70
2023-03-06T12:32:00.835Z,27.20
2023-03-06T12:33:00.698Z,18.70
2023-03-06T12:34:00.762Z,11.10
2023-03-06T12:35:00.712Z,11.60
2023-03-06T12:36:00.723Z,31.50
2023-03-06T12:37:00.656Z,27.00
2023-03-06T12:38:00.628Z,21.70
2023-03-06T12:39:00.734Z,10.50
2023-03-06T12:40:00.664Z,10.50
2023-03-06T12:41:00.621Z,25.30
2023-03-06T12:42:00.601Z,25.10
2023-03-06T12:43:00.596Z,18.70